Time;durP1;ratioP1;P1;durP2;ratioP2;P2;SDS_P1;SDS_P2;PMS_P1;PMS_P2;Temp;Humidity;BMP_temperature;BMP_pressure;BME280_temperature;BME280_humidity;BME280_pressure;Samples;Min_cycle;Max_cycle;Signal;HPM_P1;HPM_P2
2022/02/28 00:00:52;;;;;;;6.27;3.40;;;3.60;93.10;;;;;;4975439;28;20030;-80
2022/02/28 00:03:18;;;;;;;6.73;3.40;;;3.60;93.30;;;;;;4976056;28;20031;-80
2022/02/28 00:05:44;;;;;;;6.20;3.30;;;3.60;93.60;;;;;;4975723;28;20494;-77
2022/02/28 00:08:10;;;;;;;6.00;3.00;;;3.60;94.00;;;;;;4975561;28;20026;-79
2022/02/28 00:10:36;;;;;;;6.97;4.03;;;3.60;94.20;;;;;;4993204;28;20122;-79
2022/02/28 00:13:02;;;;;;;7.83;3.57;;;3.50;94.40;;;;;;4975777;28;20085;-79
2022/02/28 00:15:28;;;;;;;8.43;3.67;;;3.50;94.40;;;;;;4976293;28;20085;-79
2022/02/28 00:17:53;;;;;;;5.80;3.30;;;3.60;94.50;;;;;;4975575;28;20026;-78
2022/02/28 00:20:19;;;;;;;7.63;3.67;;;3.60;94.90;;;;;;4984071;28;20034;-79
2022/02/28 00:22:45;;;;;;;7.23;3.10;;;3.50;94.80;;;;;;4990233;28;20026;-79
2022/02/28 00:25:12;;;;;;;6.33;3.40;;;3.50;94.90;;;;;;4979034;28;20027;-80
2022/02/28 00:27:38;;;;;;;8.43;3.70;;;3.50;95.30;;;;;;4979263;28;20023;-77
2022/02/28 00:30:07;;;;;;;5.00;3.17;;;3.40;95.30;;;;;;4978610;28;20030;-80
2022/02/28 00:32:33;;;;;;;6.03;3.47;;;3.40;95.60;;;;;;4978914;28;20034;-79
2022/02/28 00:34:59;;;;;;;8.63;3.67;;;3.40;95.70;;;;;;4979153;28;20027;-79
2022/02/28 00:37:24;;;;;;;6.77;3.67;;;3.40;95.70;;;;;;4978107;28;20030;-78
2022/02/28 00:39:50;;;;;;;7.13;3.60;;;3.30;95.60;;;;;;4995929;28;20062;-79
2022/02/28 00:42:16;;;;;;;7.17;3.60;;;3.30;96.20;;;;;;4978296;28;20499;-78
2022/02/28 00:44:41;;;;;;;5.97;3.33;;;3.30;96.20;;;;;;4978968;28;20019;-79
2022/02/28 00:47:07;;;;;;;7.03;3.20;;;3.20;96.50;;;;;;4978699;28;20109;-79
2022/02/28 00:49:34;;;;;;;8.23;3.77;;;3.20;96.70;;;;;;4982178;28;20022;-79
2022/02/28 00:51:59;;;;;;;9.00;3.43;;;3.10;96.60;;;;;;4995196;28;20049;-80
2022/02/28 00:54:27;;;;;;;7.30;3.53;;;3.10;97.00;;;;;;4994593;28;20030;-81
2022/02/28 00:56:53;;;;;;;6.90;3.43;;;3.10;97.10;;;;;;4995173;28;20065;-81
2022/02/28 00:59:19;;;;;;;6.30;3.63;;;3.20;97.20;;;;;;4995112;28;20146;-80
2022/02/28 01:01:45;;;;;;;6.53;3.30;;;3.10;97.10;;;;;;4983379;28;20492;-81
2022/02/28 01:04:11;;;;;;;8.20;3.80;;;3.00;97.20;;;;;;4978788;28;20130;-81
2022/02/28 01:06:36;;;;;;;7.50;3.70;;;3.00;97.00;;;;;;4979010;28;20030;-80
2022/02/28 01:09:03;;;;;;;9.13;4.10;;;3.10;97.00;;;;;;4978527;28;20031;-80
2022/02/28 01:11:29;;;;;;;9.93;4.23;;;3.10;97.00;;;;;;4978832;28;20034;-80
2022/02/28 01:13:55;;;;;;;8.03;4.17;;;3.10;97.10;;;;;;4995996;28;20031;-78
2022/02/28 01:16:21;;;;;;;9.13;4.00;;;3.10;97.10;;;;;;4978321;28;20026;-77
2022/02/28 01:18:46;;;;;;;8.47;4.07;;;3.20;97.20;;;;;;4978868;28;20079;-88
2022/02/28 01:21:12;;;;;;;5.73;3.40;;;3.20;97.30;;;;;;4978001;28;20022;-87
2022/02/28 01:23:38;;;;;;;7.50;3.63;;;3.20;97.30;;;;;;4978625;28;20023;-86
2022/02/28 01:26:04;;;;;;;6.80;3.60;;;3.10;97.40;;;;;;4978306;28;20419;-80
2022/02/28 01:28:29;;;;;;;7.77;3.20;;;3.00;97.80;;;;;;4995599;28;20039;-84
2022/02/28 01:30:55;;;;;;;10.00;3.70;;;3.10;97.60;;;;;;4995273;28;20045;-85
2022/02/28 01:33:21;;;;;;;7.50;3.40;;;3.00;97.70;;;;;;4975907;28;20014;-85
2022/02/28 01:35:47;;;;;;;7.27;3.50;;;3.00;97.70;;;;;;4994015;28;20097;-84
2022/02/28 01:38:12;;;;;;;8.27;3.53;;;3.00;98.00;;;;;;4993516;28;20525;-85
2022/02/28 01:40:38;;;;;;;7.53;3.80;;;2.90;97.80;;;;;;4977838;28;20542;-83
2022/02/28 01:43:05;;;;;;;9.10;3.57;;;3.00;97.60;;;;;;4977160;28;20023;-82
2022/02/28 01:45:31;;;;;;;7.53;3.77;;;2.90;97.70;;;;;;4978181;28;20026;-81
2022/02/28 01:47:58;;;;;;;6.37;3.67;;;2.90;97.90;;;;;;4978273;28;20387;-85
2022/02/28 01:50:25;;;;;;;7.67;3.63;;;2.90;98.10;;;;;;4977807;28;20038;-82
2022/02/28 01:52:51;;;;;;;8.27;3.87;;;2.80;98.20;;;;;;4977147;28;20034;-81
2022/02/28 01:55:18;;;;;;;8.17;3.73;;;2.80;98.40;;;;;;4994863;28;20471;-82
2022/02/28 01:57:45;;;;;;;9.37;4.07;;;2.80;98.20;;;;;;4995705;28;20053;-82
2022/02/28 02:00:14;;;;;;;9.00;3.83;;;2.70;98.50;;;;;;5009693;28;20035;-82
2022/02/28 02:02:40;;;;;;;6.20;3.70;;;2.80;98.40;;;;;;4994235;28;20066;-82
2022/02/28 02:05:06;;;;;;;6.40;3.70;;;2.70;98.70;;;;;;4994498;28;20098;-81
2022/02/28 02:07:32;;;;;;;7.93;3.80;;;2.60;98.80;;;;;;4995225;28;20475;-84
2022/02/28 02:09:58;;;;;;;7.27;3.60;;;2.50;98.90;;;;;;4995239;28;20027;-84
2022/02/28 02:12:28;;;;;;;7.83;3.80;;;2.40;99.30;;;;;;4993283;28;20149;-82
2022/02/28 02:14:55;;;;;;;9.60;3.60;;;2.40;99.60;;;;;;4994139;28;20030;-82
2022/02/28 02:17:21;;;;;;;7.17;3.77;;;2.40;99.60;;;;;;4993543;28;20030;-82
2022/02/28 02:19:47;;;;;;;9.37;3.97;;;2.40;99.60;;;;;;4995300;28;20113;-83
2022/02/28 02:22:20;;;;;;;6.13;3.47;;;2.40;99.70;;;;;;4993564;28;20054;-84
2022/02/28 02:24:46;;;;;;;7.47;3.77;;;2.40;99.60;;;;;;4994156;28;20027;-83
2022/02/28 02:27:12;;;;;;;8.53;3.67;;;2.50;99.70;;;;;;4994326;28;20022;-83
2022/02/28 02:29:37;;;;;;;10.17;4.20;;;2.50;99.50;;;;;;4994981;28;20026;-83
2022/02/28 02:32:11;;;;;;;6.57;3.67;;;2.50;99.50;;;;;;4993354;28;20369;-78
2022/02/28 02:34:37;;;;;;;5.10;3.57;;;2.50;99.20;;;;;;4993812;28;20029;-82
2022/02/28 02:37:03;;;;;;;7.93;3.97;;;2.40;99.30;;;;;;4993787;28;20030;-79
2022/02/28 02:39:29;;;;;;;8.47;4.17;;;2.30;99.30;;;;;;4994412;28;20468;-83
2022/02/28 02:41:54;;;;;;;7.70;4.03;;;2.30;99.50;;;;;;4993922;28;20030;-83
2022/02/28 02:44:20;;;;;;;10.47;4.80;;;2.30;99.60;;;;;;4993225;28;20034;-86
2022/02/28 02:46:51;;;;;;;9.57;4.83;;;2.30;99.90;;;;;;4994028;28;20033;-86
2022/02/28 02:49:17;;;;;;;7.10;3.75;;;2.40;99.90;;;;;;4993304;28;20035;-86
2022/02/28 02:51:43;;;;;;;8.20;4.30;;;2.40;99.80;;;;;;4993688;28;20041;-85
2022/02/28 02:54:09;;;;;;;12.57;5.23;;;2.50;99.80;;;;;;4992845;28;20029;-85
2022/02/28 02:56:36;;;;;;;7.87;4.70;;;2.40;99.70;;;;;;4993495;28;20031;-86
2022/02/28 02:59:03;;;;;;;10.40;4.93;;;2.50;99.80;;;;;;4993621;28;20034;-85
2022/02/28 03:01:29;;;;;;;9.00;4.53;;;2.50;99.60;;;;;;4994704;28;20093;-86
2022/02/28 03:03:55;;;;;;;10.07;4.67;;;2.50;99.70;;;;;;4993447;28;20371;-82
2022/02/28 03:06:21;;;;;;;7.20;4.33;;;2.50;99.70;;;;;;4991988;28;20061;-81
2022/02/28 03:08:46;;;;;;;8.93;4.63;;;2.40;99.90;;;;;;5009179;28;20033;-80
2022/02/28 03:11:12;;;;;;;9.13;4.83;;;2.40;99.90;;;;;;4992754;28;20062;-83
2022/02/28 03:13:38;;;;;;;8.63;4.77;;;2.40;99.90;;;;;;4993158;28;20022;-86
2022/02/28 03:16:04;;;;;;;9.53;4.40;;;2.30;99.90;;;;;;4993554;28;20030;-86
2022/02/28 03:18:30;;;;;;;10.83;4.77;;;2.30;99.90;;;;;;4993163;28;20026;-86
2022/02/28 03:20:55;;;;;;;8.70;4.30;;;2.30;99.90;;;;;;4993069;28;20037;-87
2022/02/28 03:23:21;;;;;;;10.63;4.33;;;2.30;99.90;;;;;;4992529;28;20033;-85
2022/02/28 03:25:47;;;;;;;7.83;4.10;;;2.40;99.90;;;;;;4992912;28;20125;-84
2022/02/28 03:28:12;;;;;;;7.93;4.47;;;2.50;99.80;;;;;;4992719;28;20035;-84
2022/02/28 03:30:38;;;;;;;8.40;4.33;;;2.50;99.60;;;;;;4994271;28;20035;-84
2022/02/28 03:33:04;;;;;;;7.73;4.37;;;2.40;99.80;;;;;;4993014;28;20046;-85
2022/02/28 03:35:30;;;;;;;6.73;3.80;;;2.40;99.80;;;;;;4992408;28;20061;-84
2022/02/28 03:37:55;;;;;;;7.93;4.33;;;2.40;99.60;;;;;;4993012;28;20033;-85
2022/02/28 03:40:21;;;;;;;9.17;4.43;;;2.40;99.70;;;;;;4992897;28;20054;-85
2022/02/28 03:42:46;;;;;;;9.40;4.30;;;2.40;99.90;;;;;;4994221;28;20027;-85
2022/02/28 03:45:12;;;;;;;9.20;4.40;;;2.40;99.70;;;;;;4992621;28;20026;-82
2022/02/28 03:47:38;;;;;;;8.70;4.20;;;2.30;99.80;;;;;;4992637;28;20088;-84
2022/02/28 03:50:04;;;;;;;11.40;4.40;;;2.40;99.80;;;;;;4993090;28;20027;-84
2022/02/28 03:52:30;;;;;;;8.10;4.27;;;2.30;99.90;;;;;;4992625;28;20471;-85
2022/02/28 03:54:55;;;;;;;8.70;4.40;;;2.30;99.90;;;;;;4993248;28;20030;-84
2022/02/28 03:57:21;;;;;;;10.57;4.60;;;2.20;99.90;;;;;;4993611;28;20033;-82
2022/02/28 03:59:47;;;;;;;8.90;4.17;;;2.20;99.90;;;;;;4997568;28;20077;-84
2022/02/28 04:02:12;;;;;;;6.83;4.03;;;2.10;99.90;;;;;;4996200;28;20034;-84
2022/02/28 04:04:38;;;;;;;7.70;4.03;;;2.10;99.90;;;;;;4997756;28;20030;-85
2022/02/28 04:07:04;;;;;;;7.07;4.00;;;2.00;99.90;;;;;;4996403;28;20177;-85
2022/02/28 04:09:34;;;;;;;11.57;4.43;;;2.00;99.90;;;;;;4995991;28;20029;-85
2022/02/28 04:12:01;;;;;;;8.53;4.20;;;2.00;99.90;;;;;;4996591;28;20034;-85
2022/02/28 04:14:27;;;;;;;7.77;4.00;;;2.00;99.90;;;;;;4995955;28;20032;-85
2022/02/28 04:16:53;;;;;;;9.07;4.00;;;2.00;99.90;;;;;;4996719;28;20113;-85
2022/02/28 04:19:19;;;;;;;8.63;4.20;;;2.00;99.90;;;;;;4996035;28;20032;-84
2022/02/28 04:21:44;;;;;;;9.87;4.23;;;2.00;99.90;;;;;;4997677;28;20430;-84
2022/02/28 04:24:10;;;;;;;9.20;5.00;;;2.10;99.90;;;;;;4996293;28;20085;-81
2022/02/28 04:26:36;;;;;;;9.63;4.33;;;2.00;99.90;;;;;;4996124;28;20077;-84
2022/02/28 04:29:03;;;;;;;9.00;4.10;;;2.00;99.90;;;;;;4996381;28;20030;-84
2022/02/28 04:31:29;;;;;;;8.90;4.17;;;2.00;99.90;;;;;;4995642;28;20119;-84
2022/02/28 04:33:55;;;;;;;8.67;4.43;;;1.90;99.90;;;;;;4996328;28;20407;-84
2022/02/28 04:36:20;;;;;;;8.43;4.43;;;1.90;99.90;;;;;;4995201;28;20049;-85
2022/02/28 04:38:46;;;;;;;8.87;4.43;;;1.90;99.90;;;;;;4996163;28;20172;-85
2022/02/28 04:41:12;;;;;;;8.30;4.53;;;1.90;99.90;;;;;;4995335;28;20142;-79
2022/02/28 04:43:37;;;;;;;8.93;4.37;;;1.90;99.90;;;;;;4997026;28;20106;-84
2022/02/28 04:46:03;;;;;;;9.33;4.07;;;1.90;99.90;;;;;;4995964;28;20052;-84
2022/02/28 04:48:29;;;;;;;8.13;4.60;;;1.80;99.90;;;;;;4994875;28;20027;-85
2022/02/28 04:50:55;;;;;;;8.50;4.07;;;1.80;99.90;;;;;;4996596;28;20126;-85
2022/02/28 04:53:22;;;;;;;9.13;4.30;;;1.80;99.90;;;;;;4995052;28;20049;-85
2022/02/28 04:55:49;;;;;;;10.23;4.40;;;1.80;99.90;;;;;;4995727;28;20022;-84
2022/02/28 04:58:15;;;;;;;10.07;4.77;;;1.80;99.90;;;;;;4995312;28;20061;-82
2022/02/28 05:00:40;;;;;;;8.40;4.37;;;1.70;99.90;;;;;;4995753;28;20026;-84
2022/02/28 05:03:06;;;;;;;10.87;4.33;;;1.70;99.90;;;;;;4995792;28;20591;-84
2022/02/28 05:05:32;;;;;;;7.53;3.70;;;1.60;99.90;;;;;;4995389;28;20014;-84
2022/02/28 05:07:57;;;;;;;9.10;4.83;;;1.50;99.90;;;;;;4995277;28;20030;-84
2022/02/28 05:10:23;;;;;;;9.70;4.80;;;1.40;99.90;;;;;;4995425;28;20080;-87
2022/02/28 05:12:49;;;;;;;11.73;4.20;;;1.40;99.90;;;;;;4995893;28;20038;-86
2022/02/28 05:15:15;;;;;;;9.10;4.63;;;1.50;99.90;;;;;;4995256;28;20033;-79
2022/02/28 05:17:40;;;;;;;13.00;5.67;;;1.40;99.90;;;;;;4995594;28;20023;-81
2022/02/28 05:20:07;;;;;;;13.80;6.60;;;1.40;99.90;;;;;;4995441;28;20023;-81
2022/02/28 05:22:32;;;;;;;17.47;6.70;;;1.40;99.90;;;;;;4994668;28;20034;-81
2022/02/28 05:24:58;;;;;;;15.00;6.17;;;1.40;99.90;;;;;;4997516;28;20100;-81
2022/02/28 05:27:23;;;;;;;15.83;6.53;;;1.40;99.90;;;;;;4994434;28;20037;-81
2022/02/28 05:29:50;;;;;;;14.20;6.47;;;1.40;99.90;;;;;;4995915;28;20439;-81
2022/02/28 05:32:16;;;;;;;9.83;4.93;;;1.30;99.90;;;;;;4994385;28;20097;-78
2022/02/28 05:34:41;;;;;;;9.73;4.80;;;1.40;99.90;;;;;;4995027;28;20030;-81
2022/02/28 05:37:07;;;;;;;10.47;5.47;;;1.40;99.90;;;;;;4995514;28;20380;-81
2022/02/28 05:39:33;;;;;;;11.27;4.90;;;1.40;99.90;;;;;;4995066;28;20195;-82
2022/02/28 05:41:58;;;;;;;9.77;4.77;;;1.40;99.90;;;;;;4995140;28;20036;-82
2022/02/28 05:44:24;;;;;;;9.10;4.83;;;1.40;99.90;;;;;;4994865;28;20034;-81
2022/02/28 05:46:49;;;;;;;12.03;4.90;;;1.30;99.90;;;;;;4994404;28;20069;-81
2022/02/28 05:49:15;;;;;;;9.20;4.40;;;1.30;99.90;;;;;;4995596;28;20031;-79
2022/02/28 05:51:41;;;;;;;8.40;4.73;;;1.30;99.90;;;;;;4994452;28;20472;-81
2022/02/28 05:54:06;;;;;;;10.50;4.90;;;1.30;99.90;;;;;;4993980;28;20031;-81
2022/02/28 05:56:33;;;;;;;10.00;4.57;;;1.30;99.90;;;;;;4994038;28;20076;-81
2022/02/28 05:58:59;;;;;;;9.47;5.60;;;1.30;99.90;;;;;;4995551;28;20034;-81
2022/02/28 06:01:24;;;;;;;9.13;4.43;;;1.30;99.90;;;;;;4993606;28;20384;-81
2022/02/28 06:03:50;;;;;;;10.07;4.67;;;1.40;99.90;;;;;;4994416;28;20483;-81
2022/02/28 06:06:16;;;;;;;8.87;4.70;;;1.40;99.90;;;;;;4994361;28;20022;-78
2022/02/28 06:08:42;;;;;;;9.03;4.63;;;1.30;99.90;;;;;;4993345;28;20026;-81
2022/02/28 06:11:07;;;;;;;10.03;5.10;;;1.30;99.90;;;;;;4994103;28;20129;-81
2022/02/28 06:13:33;;;;;;;14.43;5.67;;;1.30;99.90;;;;;;4993575;28;20030;-81
2022/02/28 06:16:00;;;;;;;9.23;5.03;;;1.30;99.90;;;;;;4994186;28;20475;-81
2022/02/28 06:18:25;;;;;;;13.50;4.97;;;1.30;99.90;;;;;;4993651;28;20022;-81
2022/02/28 06:20:51;;;;;;;11.40;5.00;;;1.30;99.90;;;;;;4993865;28;20468;-81
2022/02/28 06:23:17;;;;;;;11.57;5.43;;;1.30;99.90;;;;;;4994100;28;20030;-79
2022/02/28 06:25:44;;;;;;;11.03;5.40;;;1.30;99.90;;;;;;4993834;28;20029;-86
2022/02/28 06:28:10;;;;;;;10.80;4.97;;;1.30;99.90;;;;;;4993879;28;20117;-85
2022/02/28 06:30:36;;;;;;;9.30;4.57;;;1.30;99.90;;;;;;4994285;28;20041;-85
2022/02/28 06:33:02;;;;;;;11.70;5.30;;;1.30;99.90;;;;;;4994190;28;20031;-85
2022/02/28 06:35:28;;;;;;;12.20;5.00;;;1.30;99.90;;;;;;4993675;28;20100;-84
2022/02/28 06:37:54;;;;;;;10.40;5.00;;;1.30;99.90;;;;;;4993704;28;20411;-84
2022/02/28 06:40:19;;;;;;;9.60;4.87;;;1.30;99.90;;;;;;4992791;28;20081;-77
2022/02/28 06:42:45;;;;;;;11.33;5.03;;;1.30;99.90;;;;;;4993490;28;20038;-81
2022/02/28 06:45:11;;;;;;;11.80;5.50;;;1.30;99.90;;;;;;4994829;28;20030;-81
2022/02/28 06:47:36;;;;;;;9.20;4.97;;;1.30;99.90;;;;;;4992912;28;20549;-80
2022/02/28 06:50:04;;;;;;;12.97;5.50;;;1.30;99.90;;;;;;4993612;28;20361;-82
2022/02/28 06:52:29;;;;;;;12.03;5.60;;;1.40;99.90;;;;;;4992582;28;20034;-81
2022/02/28 06:54:56;;;;;;;11.23;5.50;;;1.40;99.90;;;;;;4993260;28;20097;-81
2022/02/28 06:57:23;;;;;;;10.00;5.73;;;1.40;99.90;;;;;;4992924;28;20113;-78
2022/02/28 06:59:49;;;;;;;14.77;5.53;;;1.40;99.90;;;;;;4993374;28;20037;-80
2022/02/28 07:02:14;;;;;;;13.07;5.57;;;1.40;99.90;;;;;;5010142;28;20030;-84
2022/02/28 07:04:40;;;;;;;11.37;5.53;;;1.50;99.90;;;;;;4993045;28;20030;-85
2022/02/28 07:07:06;;;;;;;12.70;5.53;;;1.40;99.90;;;;;;4993862;28;20026;-83
2022/02/28 07:09:33;;;;;;;10.47;5.10;;;1.50;99.90;;;;;;4993980;28;20128;-85
2022/02/28 07:11:58;;;;;;;9.77;4.73;;;1.50;99.90;;;;;;4994407;28;20042;-85
2022/02/28 07:14:25;;;;;;;10.90;5.00;;;1.50;99.90;;;;;;4993073;28;20490;-83
2022/02/28 07:16:50;;;;;;;11.27;4.90;;;1.60;99.90;;;;;;4993608;28;20030;-85
2022/02/28 07:19:16;;;;;;;10.27;5.70;;;1.60;99.90;;;;;;4993487;28;20034;-85
2022/02/28 07:21:42;;;;;;;11.60;5.40;;;1.60;99.90;;;;;;4992525;28;20029;-85
2022/02/28 07:24:08;;;;;;;12.03;5.60;;;1.60;99.90;;;;;;4993104;28;20031;-85
2022/02/28 07:26:36;;;;;;;9.43;4.70;;;1.70;99.90;;;;;;4992342;28;20027;-83
2022/02/28 07:29:02;;;;;;;12.80;6.53;;;1.70;99.90;;;;;;4993156;28;20041;-83
2022/02/28 07:31:27;;;;;;;9.77;5.10;;;1.80;99.90;;;;;;4992810;28;20125;-81
2022/02/28 07:33:53;;;;;;;11.33;5.70;;;1.80;99.90;;;;;;4997491;28;20030;-81
2022/02/28 07:36:19;;;;;;;9.53;5.20;;;1.90;99.90;;;;;;4997449;28;20034;-85
2022/02/28 07:38:44;;;;;;;9.80;5.50;;;1.90;99.90;;;;;;4996509;28;20034;-84
2022/02/28 07:41:10;;;;;;;11.10;5.37;;;2.00;99.90;;;;;;4996753;28;20050;-84
2022/02/28 07:43:36;;;;;;;13.03;5.53;;;2.10;99.90;;;;;;5014296;28;20037;-84
2022/02/28 07:46:02;;;;;;;11.33;5.60;;;2.00;99.90;;;;;;4997645;28;20027;-83
2022/02/28 07:48:28;;;;;;;11.07;5.37;;;2.10;99.90;;;;;;4980096;28;20029;-84
2022/02/28 07:50:53;;;;;;;12.00;5.43;;;2.10;99.90;;;;;;4980571;28;20129;-84
2022/02/28 07:53:19;;;;;;;12.93;5.47;;;2.20;99.90;;;;;;4980837;28;20509;-84
2022/02/28 07:55:45;;;;;;;11.07;5.73;;;2.30;99.90;;;;;;4979039;28;20466;-85
2022/02/28 07:58:12;;;;;;;9.60;5.53;;;2.30;99.90;;;;;;4980048;28;20026;-81
2022/02/28 08:00:37;;;;;;;9.90;5.70;;;2.40;99.90;;;;;;4978902;28;20060;-83
2022/02/28 08:03:03;;;;;;;12.33;5.53;;;2.40;99.90;;;;;;4979822;28;20053;-86
2022/02/28 08:05:29;;;;;;;15.03;6.40;;;2.50;99.90;;;;;;4979277;28;20026;-86
2022/02/28 08:07:55;;;;;;;10.43;5.93;;;2.50;99.90;;;;;;4979750;28;20113;-85
2022/02/28 08:10:22;;;;;;;11.67;6.43;;;2.60;99.80;;;;;;4980599;28;20440;-86
2022/02/28 08:12:48;;;;;;;15.10;6.13;;;2.60;99.60;;;;;;4979024;28;20058;-86
2022/02/28 08:15:13;;;;;;;11.33;5.70;;;2.70;99.90;;;;;;4979591;28;20030;-86
2022/02/28 08:17:39;;;;;;;12.93;7.03;;;2.80;99.50;;;;;;4979382;28;20049;-88
2022/02/28 08:20:06;;;;;;;12.07;6.07;;;2.80;99.50;;;;;;4979365;28;20026;-80
2022/02/28 08:22:32;;;;;;;11.63;6.00;;;2.90;99.50;;;;;;4978990;28;20046;-82
2022/02/28 08:24:58;;;;;;;10.83;5.90;;;2.90;99.80;;;;;;4979543;28;20026;-81
2022/02/28 08:27:25;;;;;;;9.87;5.50;;;3.10;99.40;;;;;;4978979;28;20030;-81
2022/02/28 08:29:50;;;;;;;10.13;5.40;;;3.10;99.00;;;;;;4979911;28;20026;-81
2022/02/28 08:32:16;;;;;;;12.77;5.73;;;3.10;98.30;;;;;;4979785;28;20073;-81
2022/02/28 08:34:42;;;;;;;11.67;5.67;;;3.10;98.30;;;;;;4979269;28;20034;-81
2022/02/28 08:37:08;;;;;;;11.70;5.83;;;3.20;98.30;;;;;;4978936;28;20383;-80
2022/02/28 08:39:34;;;;;;;14.77;5.90;;;3.20;98.00;;;;;;4978982;28;20510;-80
2022/02/28 08:42:00;;;;;;;10.93;5.70;;;3.30;97.50;;;;;;4996894;28;20456;-81
2022/02/28 08:44:25;;;;;;;12.23;5.60;;;3.30;97.50;;;;;;4995751;28;20145;-80
2022/02/28 08:46:51;;;;;;;13.67;6.30;;;3.30;97.40;;;;;;4979099;28;20026;-80
2022/02/28 08:49:17;;;;;;;12.17;5.57;;;3.40;97.90;;;;;;4979597;28;20065;-80
2022/02/28 08:51:44;;;;;;;12.63;6.23;;;3.50;97.90;;;;;;4978851;28;20060;-80
2022/02/28 08:54:10;;;;;;;10.53;5.13;;;3.60;97.10;;;;;;4979681;28;20468;-80
2022/02/28 08:56:35;;;;;;;12.70;6.03;;;3.60;97.10;;;;;;4978899;28;20022;-80
2022/02/28 08:59:01;;;;;;;12.63;6.27;;;3.80;96.70;;;;;;4979104;28;20030;-81
2022/02/28 09:01:27;;;;;;;11.57;5.93;;;3.70;96.60;;;;;;4978817;28;20046;-83
2022/02/28 09:03:53;;;;;;;12.97;5.87;;;3.70;96.70;;;;;;4979172;28;20084;-83
2022/02/28 09:06:18;;;;;;;10.70;5.97;;;3.80;96.80;;;;;;4979316;28;20471;-83
2022/02/28 09:08:44;;;;;;;13.67;6.03;;;3.90;96.30;;;;;;4978827;28;20369;-82
2022/02/28 09:11:10;;;;;;;12.80;6.33;;;3.90;96.10;;;;;;4979485;28;20037;-82
2022/02/28 09:13:35;;;;;;;11.33;5.93;;;4.00;95.70;;;;;;4978488;28;20033;-81
2022/02/28 09:16:01;;;;;;;12.87;6.20;;;4.00;95.90;;;;;;4979292;28;20360;-81
2022/02/28 09:18:27;;;;;;;13.13;6.23;;;4.00;96.20;;;;;;4978754;28;20026;-78
2022/02/28 09:20:53;;;;;;;13.40;6.10;;;4.10;96.40;;;;;;4996216;28;20037;-83
2022/02/28 09:23:18;;;;;;;11.83;5.87;;;4.20;97.20;;;;;;4978085;28;20387;-83
2022/02/28 09:25:44;;;;;;;11.57;5.80;;;4.20;96.10;;;;;;4996243;28;20905;-84
2022/02/28 09:28:10;;;;;;;11.40;5.67;;;4.30;95.50;;;;;;4996404;28;20418;-83
2022/02/28 09:30:35;;;;;;;11.43;5.43;;;4.40;95.10;;;;;;4977509;28;20065;-82
2022/02/28 09:33:01;;;;;;;12.03;5.50;;;4.50;94.40;;;;;;4977982;28;20097;-85
2022/02/28 09:35:27;;;;;;;10.77;5.43;;;4.60;94.40;;;;;;4995435;28;20030;-77
2022/02/28 09:37:54;;;;;;;11.53;5.27;;;4.70;93.90;;;;;;4978477;28;20022;-81
2022/02/28 09:40:26;;;;;;;11.50;5.90;;;4.70;93.60;;;;;;4977804;28;20054;-80
2022/02/28 09:42:55;;;;;;;11.23;5.97;;;4.70;93.80;;;;;;4977901;28;20034;-79
2022/02/28 09:45:21;;;;;;;9.83;5.53;;;4.90;93.50;;;;;;4995562;28;20030;-80
2022/02/28 09:47:48;;;;;;;11.87;6.03;;;4.80;93.10;;;;;;4994860;28;20479;-79
2022/02/28 09:50:14;;;;;;;10.03;5.20;;;4.90;93.60;;;;;;4977620;28;20030;-81
2022/02/28 09:52:40;;;;;;;10.03;5.33;;;4.90;93.10;;;;;;4976971;28;20038;-80
2022/02/28 09:55:06;;;;;;;11.70;5.87;;;4.90;94.10;;;;;;4977083;28;20026;-81
2022/02/28 09:57:32;;;;;;;14.57;5.73;;;5.10;92.60;;;;;;4977128;28;20434;-80
2022/02/28 09:59:58;;;;;;;11.73;5.90;;;5.20;92.40;;;;;;4977410;28;20491;-81
2022/02/28 10:02:24;;;;;;;10.57;5.17;;;5.20;92.00;;;;;;4994968;28;20058;-81
2022/02/28 10:04:51;;;;;;;13.27;5.63;;;5.30;92.70;;;;;;4977097;28;20112;-80
2022/02/28 10:07:23;;;;;;;10.57;5.27;;;5.40;92.00;;;;;;4995563;28;20030;-81
2022/02/28 10:10:07;;;;;;;10.20;4.60;;;5.40;91.10;;;;;;4977778;28;20572;-82
2022/02/28 10:12:33;;;;;;;9.03;5.10;;;5.30;90.70;;;;;;4977492;28;20034;-82
2022/02/28 10:15:09;;;;;;;12.43;5.27;;;5.40;91.90;;;;;;4978131;28;20049;-81
2022/02/28 10:18:11;;;;;;;13.67;5.77;;;5.60;92.10;;;;;;4977703;28;20026;-82
2022/02/28 10:20:38;;;;;;;9.63;5.03;;;5.70;90.70;;;;;;4960575;28;20037;-81
2022/02/28 10:23:10;;;;;;;9.93;5.30;;;5.80;91.10;;;;;;4977827;28;20034;-81
2022/02/28 10:25:44;;;;;;;9.90;4.85;;;5.90;89.40;;;;;;4977375;28;20033;-82
2022/02/28 10:28:15;;;;;;;11.63;4.97;;;6.10;90.50;;;;;;4977582;28;20030;-82
2022/02/28 10:31:00;;;;;;;13.90;4.93;;;6.20;87.50;;;;;;4976956;28;20039;-82
2022/02/28 10:33:32;;;;;;;12.40;4.87;;;6.10;83.60;;;;;;4977725;28;20034;-82
2022/02/28 10:36:10;;;;;;;8.85;4.70;;;6.10;88.60;;;;;;4977817;28;20034;-82
2022/02/28 10:38:42;;;;;;;8.10;4.77;;;6.10;85.20;;;;;;4976785;28;20046;-81
2022/02/28 10:41:14;;;;;;;;;;;6.20;86.90;;;;;;4974529;28;20135;-85
2022/02/28 10:43:42;;;;;;;7.72;4.65;;;6.40;84.90;;;;;;4973564;28;20582;-84
2022/02/28 10:46:42;;;;;;;8.20;4.87;;;6.60;86.20;;;;;;4974583;28;20412;-83
2022/02/28 10:49:27;;;;;;;8.87;5.00;;;6.60;82.50;;;;;;4932892;28;20031;-84
2022/02/28 10:51:55;;;;;;;9.20;4.30;;;6.60;81.40;;;;;;4973481;28;20031;-84
2022/02/28 10:54:31;;;;;;;7.27;4.17;;;6.70;84.10;;;;;;4974075;28;20456;-84
2022/02/28 10:57:04;;;;;;;8.77;4.73;;;6.80;87.60;;;;;;4973446;28;20031;-83
2022/02/28 10:59:49;;;;;;;9.97;4.77;;;6.90;80.30;;;;;;4974775;28;20027;-83
2022/02/28 11:02:37;;;;;;;7.43;4.20;;;6.90;78.60;;;;;;4975119;28;20081;-84
2022/02/28 11:05:07;;;;;;;7.20;4.13;;;7.00;81.30;;;;;;4973962;28;20027;-86
2022/02/28 11:07:59;;;;;;;6.63;4.27;;;7.10;79.90;;;;;;4973429;28;20476;-80
2022/02/28 11:10:25;;;;;;;8.60;4.30;;;7.20;82.00;;;;;;4973982;28;20023;-85
2022/02/28 11:12:52;;;;;;;8.37;4.40;;;7.10;76.00;;;;;;4973055;28;20039;-85
2022/02/28 11:15:22;;;;;;;12.50;4.60;;;7.20;75.70;;;;;;4974924;28;20058;-83
2022/02/28 11:17:50;;;;;;;8.63;4.20;;;7.30;72.90;;;;;;4972498;28;20031;-78
2022/02/28 11:20:20;;;;;;;11.23;5.27;;;7.10;71.30;;;;;;4973026;28;20038;-78
2022/02/28 11:22:48;;;;;;;10.10;4.53;;;7.10;75.60;;;;;;4973159;28;20030;-80
2022/02/28 11:25:16;;;;;;;8.13;4.50;;;7.20;72.70;;;;;;4973567;28;20070;-79
2022/02/28 11:27:44;;;;;;;9.60;4.70;;;7.20;72.20;;;;;;4972460;28;20105;-81
2022/02/28 11:30:15;;;;;;;8.93;4.40;;;7.20;75.50;;;;;;4974268;28;20423;-81
2022/02/28 11:32:40;;;;;;;9.13;4.87;;;7.20;74.20;;;;;;4972991;28;20046;-82
2022/02/28 11:35:37;;;;;;;8.67;4.60;;;7.20;72.10;;;;;;4973147;28;20027;-84
2022/02/28 11:38:10;;;;;;;8.80;4.60;;;7.20;72.30;;;;;;4970083;28;20022;-81
2022/02/28 11:40:36;;;;;;;10.57;4.63;;;7.40;77.40;;;;;;4972968;28;20137;-77
2022/02/28 11:43:18;;;;;;;8.77;4.17;;;7.60;76.30;;;;;;4974577;28;20551;-80
2022/02/28 11:45:49;;;;;;;8.70;3.95;;;7.60;68.70;;;;;;4972885;28;20031;-80
2022/02/28 11:48:26;;;;;;;7.07;4.30;;;7.60;69.40;;;;;;4973476;28;20081;-82
2022/02/28 11:50:53;;;;;;;7.57;4.10;;;7.80;67.30;;;;;;4973029;28;20033;-82
2022/02/28 11:53:37;;;;;;;6.57;3.80;;;7.80;69.40;;;;;;4970026;28;20042;-87
2022/02/28 11:56:23;;;;;;;8.37;4.13;;;8.00;70.90;;;;;;4973686;28;20027;-77
2022/02/28 11:58:58;;;;;;;8.07;4.13;;;8.00;68.70;;;;;;4972457;28;20031;-77
2022/02/28 12:01:34;;;;;;;7.90;4.13;;;8.00;67.30;;;;;;4972889;28;20085;-77
2022/02/28 12:04:17;;;;;;;11.57;4.73;;;8.10;69.50;;;;;;4972621;28;20077;-77
2022/02/28 12:06:53;;;;;;;8.82;4.32;;;8.00;66.70;;;;;;4972356;28;20118;-77
2022/02/28 12:09:33;;;;;;;10.50;4.67;;;8.10;70.30;;;;;;4973789;28;20042;-78
2022/02/28 12:12:33;;;;;;;9.10;4.88;;;8.30;66.70;;;;;;4972235;28;20038;-76
2022/02/28 12:15:00;;;;;;;11.00;5.00;;;8.50;67.20;;;;;;4930976;28;20389;-77
2022/02/28 12:17:42;;;;;;;8.85;4.85;;;8.70;64.60;;;;;;4972877;28;20478;-77
2022/02/28 12:20:34;;;;;;;9.40;4.75;;;8.80;64.00;;;;;;4976365;28;20082;-79
2022/02/28 12:23:09;;;;;;;;;;;9.00;63.20;;;;;;4977071;28;20027;-80
2022/02/28 12:25:46;;;;;;;8.73;5.18;;;9.20;61.90;;;;;;4977530;28;19988;-79
2022/02/28 12:28:29;;;;;;;11.05;5.00;;;9.40;62.20;;;;;;4976177;28;20432;-78
2022/02/28 12:31:00;;;;;;;8.52;4.65;;;9.60;60.30;;;;;;4975362;28;20162;-81
2022/02/28 12:33:34;;;;;;;9.75;4.80;;;9.80;59.10;;;;;;4976071;28;20487;-80
2022/02/28 12:36:17;;;;;;;9.70;5.18;;;10.10;58.50;;;;;;4975740;28;20101;-81
2022/02/28 12:38:45;;;;;;;11.30;4.85;;;10.30;58.70;;;;;;4975877;28;20066;-80
2022/02/28 12:41:19;;;;;;;12.10;5.60;;;10.50;59.50;;;;;;4976092;28;20061;-80
2022/02/28 12:43:46;;;;;;;9.40;5.47;;;10.80;59.10;;;;;;4976832;28;20352;-80
2022/02/28 12:46:16;;;;;;;10.25;5.70;;;10.90;54.40;;;;;;4975562;28;20035;-82
2022/02/28 12:48:45;;;;;;;10.77;5.68;;;11.10;56.00;;;;;;4975637;28;20109;-82
2022/02/28 12:51:14;;;;;;;10.00;5.75;;;11.30;54.00;;;;;;4975692;28;20408;-82
2022/02/28 12:53:41;;;;;;;11.82;5.63;;;11.50;53.00;;;;;;4975460;28;20034;-82
2022/02/28 12:56:09;;;;;;;11.82;6.13;;;11.70;53.40;;;;;;4976003;28;20053;-80